DAAGDAUH

Guest
Details From DAAG - Alger Houari Boumediene
To DAUH - OUED IRARA
Flight Number -
Tags generated
Created
Modified
Stats Distance 344 nm / 638 km
Max Altitude 35,000 ft / 10,668 m
Waypoints 5
Social Downloads 0
Likes 0
Share VATSIM

Download

Looking for another format? Having issues loading an existing format? Contact us
Advertisement - Login to hide

Notes

Basic altitude profile: - Ascent Rate: 2500ft/min - Ascent Speed: 250kts - Cruise Altitude: 35000ft - Cruise Speed: 420kts - Descent Rate: 1500ft/min - Descent Speed: 250kts Options: - Use NATs: no - Use PACOTS: no - Use low airways: no - Use high airways: yes

Route

DAAG BSA J36 TGU DAUH

ID Type Via Altitude Latitude Longitude Leg Dist Tot Dist Heading (true) Name
O DAAG APT - 0 ft / 0 m 36.69752˚ 3.21308˚ - 0 nm - Alger Houari Boumediene
BSA VOR - 31,600 ft / 9,632 m 35.51528˚ 4.40167˚ 91 nm 91 nm 141° / 141° BOU SAADA VOR-DME
MAHDI FIX J36 (AWY-HI) 35,000 ft / 10,668 m 34.61667˚ 5.00000˚ 61 nm 152 nm 151° / 152° -
TGU VOR J36 (AWY-HI) 17,800 ft / 5,425 m 33.05694˚ 6.08861˚ 108 nm 261 nm 150° / 150° TOUGGOURT VOR-DME
O DAUH APT - 0 ft / 0 m 31.67290˚ 6.14046˚ 83 nm 344 nm 178° / 178° OUED IRARA

Altitude Profile

Advertisement - Login to hide

Weather


0- 5 10 15 20 25 30 35+ Temperature / ° C

Clouds and Precipitation
Forecast for 2018-05-23 06:00 UTC. Updated 2 hours ago

Ground ~20,000 ft ~40,000 ft Winds

DAAG

Details ICAO DAAG (ALG)
Name Alger Houari Boumediene
Region Algeria
Timezone Africa/Algiers (UTC+1.0)
Stats Elevation 82 ft / 25 m (AMSL)
Location 36.697521° 3.213079°
Runways 2
Magnetic Variation 1.102° E

METAR

DAAG 230730Z VRB02KT CAVOK 19/16 Q1017

Decode

TAF

TAF DAAG 230500Z 2306/2406 VRB02KT 1000 FG FEW016 BECMG 2306/2308 6000 NSW BECMG 2308/2311 04014KT BECMG 2319/2321 VRB02KT PROB30 TEMPO 2400/2406 5000 BR

Decode

Departure Runways

ID Width Length Bearing (true) Bearing (mag) Surface Threshold Offset Overrun Length
05 197 ft / 60 m 11,459 ft / 3,493 m 52.87° 51.77° Asphalt 0 ft / 0 m 0 ft / 0 m
09 148 ft / 45 m 11,442 ft / 3,487 m 91.75° 90.65° Asphalt 0 ft / 0 m 1,017 ft / 310 m
23 197 ft / 60 m 11,459 ft / 3,493 m 232.89° 231.79° Asphalt 0 ft / 0 m 0 ft / 0 m
27 148 ft / 45 m 11,442 ft / 3,487 m 271.78° 270.68° Asphalt 0 ft / 0 m 0 ft / 0 m

DAUH

Details ICAO DAUH (HME)
Name OUED IRARA
Region Algeria
Timezone Africa/Algiers (UTC+1.0)
Stats Elevation 463 ft / 141 m (AMSL)
Location 31.672900° 6.140458°
Runways 1
Magnetic Variation 1.459° E

METAR

DAUH 230730Z 07014KT CAVOK 26/13 Q1016

Decode

TAF

TAF DAUH 230500Z 2306/2406 02008KT CAVOK BECMG 2306/2309 10014KT PROB30 TEMPO 2309/2314 10015G25KT 5000 DRSA

Decode

Destination Runways

ID Width Length Bearing (true) Bearing (mag) Surface Threshold Offset Overrun Length
18 148 ft / 45 m 9,952 ft / 3,034 m 184.21° 182.75° Asphalt 0 ft / 0 m 328 ft / 100 m
36 148 ft / 45 m 9,952 ft / 3,034 m 4.20° 2.74° Asphalt 0 ft / 0 m 328 ft / 100 m

Popular Alternatives